Terminal Aerodrome Forecast
Issued by NWS Wichita, KS

Home | Current Version | Previous Version | Text Only | Print | Product List | Glossary On
Versions: 1 2 3 4 5 6 7 8 9 10 11 12 13 14 15 16 17 18
000
FTUS43 KICT 020520
TAFICT
TAF
KICT 020520Z 0206/0306 17020G29KT P6SM FEW120 SCT150
     FM021000 01020G30KT P6SM SCT020 BKN150
     FM021700 03011KT P6SM FEW150
     FM030200 03009KT P6SM BKN100=

USA.gov is the U.S. government's official web portal to all federal, state and local government web resources and services.